Time;durP1;ratioP1;P1;durP2;ratioP2;P2;SDS_P1;SDS_P2;PMS_P1;PMS_P2;Temp;Humidity;BMP_temperature;BMP_pressure;BME280_temperature;BME280_humidity;BME280_pressure;Samples;Min_cycle;Max_cycle;Signal;HPM_P1;HPM_P2
2023/12/12 00:01:23;;;;;;;;;;;19.60;58.50;;;;;;5073537;28;19924;-62
2023/12/12 00:03:48;;;;;;;;;;;19.50;58.50;;;;;;5072394;28;19929;-63
2023/12/12 00:06:14;;;;;;;;;;;19.60;58.50;;;;;;5072742;28;20050;-63
2023/12/12 00:08:39;;;;;;;;;;;19.60;58.50;;;;;;5073227;28;20373;-62
2023/12/12 00:11:05;;;;;;;;;;;19.50;58.40;;;;;;5071855;28;19932;-63
2023/12/12 00:13:31;;;;;;;;;;;19.50;58.30;;;;;;5073331;28;19928;-63
2023/12/12 00:15:56;;;;;;;;;;;19.50;58.40;;;;;;5073064;28;19970;-63
2023/12/12 00:18:22;;;;;;;;;;;19.50;58.40;;;;;;5056081;28;19925;-63
2023/12/12 00:20:47;;;;;;;;;;;19.50;58.40;;;;;;5035252;28;19925;-63
2023/12/12 00:23:13;;;;;;;;;;;19.50;58.30;;;;;;5071247;28;19967;-62
2023/12/12 00:25:38;;;;;;;;;;;19.50;58.40;;;;;;5054293;28;19924;-62
2023/12/12 00:28:04;;;;;;;;;;;19.50;58.30;;;;;;5054579;28;19925;-63
2023/12/12 00:30:30;;;;;;;;;;;19.50;58.30;;;;;;5073216;28;20015;-63
2023/12/12 00:32:55;;;;;;;;;;;19.50;58.30;;;;;;5053762;28;20368;-63
2023/12/12 00:35:20;;;;;;;;;;;19.50;58.30;;;;;;5055030;28;19929;-63
2023/12/12 00:37:46;;;;;;;;;;;19.40;58.20;;;;;;5054640;28;19928;-63
2023/12/12 00:40:12;;;;;;;;;;;19.40;58.20;;;;;;5072092;28;19928;-63
2023/12/12 00:42:37;;;;;;;;;;;19.40;58.20;;;;;;5060510;28;20300;-63
2023/12/12 00:45:03;;;;;;;;;;;19.40;58.20;;;;;;5052478;28;19925;-62
2023/12/12 00:47:30;;;;;;;;;;;19.40;58.20;;;;;;5041700;28;20392;-63
2023/12/12 00:49:55;;;;;;;;;;;19.40;58.20;;;;;;5034719;28;19931;-63
2023/12/12 00:52:21;;;;;;;;;;;19.40;58.20;;;;;;5062224;28;19928;-63
2023/12/12 00:54:46;;;;;;;;;;;19.40;58.20;;;;;;5072209;28;19921;-63
2023/12/12 00:57:12;;;;;;;;;;;19.40;58.20;;;;;;5054198;28;20388;-62
2023/12/12 00:59:37;;;;;;;;;;;19.40;58.10;;;;;;5054223;28;19931;-63
2023/12/12 01:02:03;;;;;;;;;;;19.40;58.20;;;;;;5054515;28;19932;-63
2023/12/12 01:04:32;;;;;;;;;;;19.40;58.20;;;;;;5054400;28;19925;-63
2023/12/12 01:06:57;;;;;;;;;;;19.30;58.10;;;;;;5044261;28;19924;-63
2023/12/12 01:09:22;;;;;;;;;;;19.30;58.00;;;;;;5056862;28;19931;-63
2023/12/12 01:11:48;;;;;;;;;;;19.30;58.10;;;;;;5058377;28;19928;-63
2023/12/12 01:14:13;;;;;;;;;;;19.30;58.00;;;;;;5075495;28;20026;-62
2023/12/12 01:16:39;;;;;;;;;;;19.30;58.00;;;;;;5076607;28;19924;-62
2023/12/12 01:19:04;;;;;;;;;;;19.30;58.00;;;;;;5058291;28;19924;-63
2023/12/12 01:21:30;;;;;;;;;;;19.30;58.00;;;;;;5057434;28;19991;-63
2023/12/12 01:23:55;;;;;;;;;;;19.30;58.00;;;;;;5075742;28;19932;-62
2023/12/12 01:26:21;;;;;;;;;;;19.20;57.90;;;;;;5058204;28;20389;-63
2023/12/12 01:28:47;;;;;;;;;;;19.30;57.90;;;;;;5056909;28;19931;-63
2023/12/12 01:31:16;;;;;;;;;;;19.30;57.90;;;;;;5057830;28;19967;-63
2023/12/12 01:33:41;;;;;;;;;;;19.20;57.80;;;;;;5056780;28;20442;-63
2023/12/12 01:36:07;;;;;;;;;;;19.20;57.90;;;;;;5067766;28;19950;-63
2023/12/12 01:38:32;;;;;;;;;;;19.20;57.90;;;;;;5054733;28;19949;-63
2023/12/12 01:40:58;;;;;;;;;;;19.20;57.80;;;;;;5057923;28;19924;-63
2023/12/12 01:43:24;;;;;;;;;;;19.20;57.80;;;;;;5057330;28;19932;-63
2023/12/12 01:45:49;;;;;;;;;;;19.20;57.80;;;;;;5057395;28;19946;-62
2023/12/12 01:48:15;;;;;;;;;;;19.20;57.80;;;;;;5036654;28;19925;-63
2023/12/12 01:50:40;;;;;;;;;;;19.10;57.70;;;;;;5054927;28;19932;-63
2023/12/12 01:53:06;;;;;;;;;;;19.20;58.50;;;;;;5029514;28;20372;-63
2023/12/12 01:55:31;;;;;;;;;;;19.10;57.70;;;;;;5047103;28;19925;-62
2023/12/12 01:57:57;;;;;;;;;;;19.10;57.70;;;;;;5074185;28;19932;-63
2023/12/12 02:00:22;;;;;;;;;;;19.10;57.70;;;;;;5057564;28;20015;-63
2023/12/12 02:02:48;;;;;;;;;;;19.10;57.60;;;;;;5037486;28;19983;-63
2023/12/12 02:05:14;;;;;;;;;;;19.10;57.70;;;;;;5036354;28;19921;-63
2023/12/12 02:07:39;;;;;;;;;;;19.10;57.60;;;;;;5043251;28;20011;-63
2023/12/12 02:10:05;;;;;;;;;;;19.10;57.60;;;;;;5038126;28;20007;-63
2023/12/12 02:12:31;;;;;;;;;;;19.10;57.60;;;;;;5056906;28;19928;-62
2023/12/12 02:14:56;;;;;;;;;;;19.10;57.60;;;;;;5057375;28;19931;-63
2023/12/12 02:17:21;;;;;;;;;;;19.10;57.60;;;;;;5036111;28;19978;-63
2023/12/12 02:19:47;;;;;;;;;;;19.00;57.60;;;;;;5036000;28;19929;-63
2023/12/12 02:22:12;;;;;;;;;;;19.10;57.60;;;;;;5039455;28;19925;-63
2023/12/12 02:24:38;;;;;;;;;;;19.10;57.50;;;;;;5073307;28;20384;-63
2023/12/12 02:27:03;;;;;;;;;;;19.10;57.50;;;;;;5056646;28;20439;-62
2023/12/12 02:29:29;;;;;;;;;;;19.10;57.50;;;;;;5074538;28;19967;-63
2023/12/12 02:31:54;;;;;;;;;;;19.00;57.50;;;;;;5073669;28;19925;-63
2023/12/12 02:34:20;;;;;;;;;;;19.00;57.50;;;;;;5074553;28;19924;-63
2023/12/12 02:36:45;;;;;;;;;;;19.00;57.50;;;;;;5056886;28;20372;-63
2023/12/12 02:39:11;;;;;;;;;;;19.00;57.40;;;;;;5073549;28;20446;-63
2023/12/12 02:41:37;;;;;;;;;;;19.00;57.40;;;;;;5070576;28;19940;-62
2023/12/12 02:44:03;;;;;;;;;;;19.00;57.40;;;;;;5071940;28;20254;-62
2023/12/12 02:46:28;;;;;;;;;;;19.00;57.40;;;;;;5074340;28;19924;-62
2023/12/12 02:48:54;;;;;;;;;;;19.00;57.40;;;;;;5056567;28;19920;-62
2023/12/12 02:51:19;;;;;;;;;;;19.00;57.40;;;;;;5065277;28;19925;-63
2023/12/12 02:53:45;;;;;;;;;;;19.00;58.10;;;;;;5068105;28;20011;-62
2023/12/12 02:56:10;;;;;;;;;;;19.00;57.40;;;;;;5074236;28;19928;-62
2023/12/12 02:58:36;;;;;;;;;;;18.90;57.30;;;;;;5056507;28;19960;-63
2023/12/12 03:01:01;;;;;;;;;;;18.90;57.40;;;;;;5073420;28;19928;-62
2023/12/12 03:03:27;;;;;;;;;;;18.90;57.30;;;;;;5055340;28;19924;-62
2023/12/12 03:05:52;;;;;;;;;;;18.90;57.30;;;;;;5073591;28;19924;-63
2023/12/12 03:08:18;;;;;;;;;;;18.90;57.30;;;;;;5072401;28;20011;-62
2023/12/12 03:10:43;;;;;;;;;;;18.90;57.30;;;;;;5074225;28;19924;-62
2023/12/12 03:13:08;;;;;;;;;;;18.90;57.30;;;;;;5074081;28;20003;-62
2023/12/12 03:15:34;;;;;;;;;;;18.90;57.30;;;;;;5073428;28;19925;-62
2023/12/12 03:17:59;;;;;;;;;;;18.80;57.20;;;;;;5073613;28;19932;-62
2023/12/12 03:20:25;;;;;;;;;;;18.80;57.20;;;;;;5073429;28;19924;-62
2023/12/12 03:22:50;;;;;;;;;;;18.80;57.30;;;;;;5073981;28;19925;-62
2023/12/12 03:25:16;;;;;;;;;;;18.90;57.30;;;;;;5073273;28;19925;-62
2023/12/12 03:27:41;;;;;;;;;;;18.90;57.30;;;;;;5072459;28;19951;-62
2023/12/12 03:30:07;;;;;;;;;;;18.90;57.30;;;;;;5071966;28;20368;-62
2023/12/12 03:32:33;;;;;;;;;;;18.90;57.30;;;;;;5055353;28;20419;-63
2023/12/12 03:34:58;;;;;;;;;;;18.90;57.90;;;;;;5054529;28;19928;-62
2023/12/12 03:37:24;;;;;;;;;;;18.80;57.20;;;;;;5073629;28;20070;-63
2023/12/12 03:39:49;;;;;;;;;;;18.80;57.20;;;;;;5062060;28;20011;-62
2023/12/12 03:42:15;;;;;;;;;;;18.90;57.20;;;;;;5034804;28;19924;-63
2023/12/12 03:44:40;;;;;;;;;;;18.90;57.20;;;;;;5072779;28;20025;-63
2023/12/12 03:47:05;;;;;;;;;;;18.90;57.20;;;;;;5055475;28;19920;-62
2023/12/12 03:49:31;;;;;;;;;;;18.90;57.20;;;;;;5072427;28;20407;-62
2023/12/12 03:51:56;;;;;;;;;;;18.90;57.20;;;;;;5055676;28;19931;-63
2023/12/12 03:54:22;;;;;;;;;;;18.80;57.00;;;;;;5055362;28;20360;-63
2023/12/12 03:56:47;;;;;;;;;;;18.90;57.10;;;;;;5072769;28;19924;-62
2023/12/12 03:59:13;;;;;;;;;;;18.90;57.10;;;;;;5073256;28;20322;-62
2023/12/12 04:01:38;;;;;;;;;;;18.90;57.00;;;;;;5073508;28;19925;-62
2023/12/12 04:04:04;;;;;;;;;;;18.90;57.00;;;;;;5072302;28;19924;-62
2023/12/12 04:06:29;;;;;;;;;;;18.90;57.00;;;;;;5055601;28;19930;-62
2023/12/12 04:08:55;;;;;;;;;;;18.90;57.00;;;;;;5072627;28;19928;-62
2023/12/12 04:11:20;;;;;;;;;;;18.80;57.00;;;;;;5072467;28;19926;-63
2023/12/12 04:13:46;;;;;;;;;;;18.80;57.00;;;;;;5072660;28;19954;-62
2023/12/12 04:16:11;;;;;;;;;;;18.80;57.00;;;;;;5073080;28;20354;-62
2023/12/12 04:18:37;;;;;;;;;;;18.90;57.00;;;;;;5072381;28;20373;-63
2023/12/12 04:21:03;;;;;;;;;;;18.90;57.00;;;;;;5054592;28;20463;-63
2023/12/12 04:23:29;;;;;;;;;;;18.90;57.00;;;;;;5072708;28;19930;-62
2023/12/12 04:25:54;;;;;;;;;;;18.90;57.00;;;;;;5053920;28;19925;-63
2023/12/12 04:28:20;;;;;;;;;;;18.90;57.00;;;;;;5054673;28;19977;-62
2023/12/12 04:30:46;;;;;;;;;;;18.90;57.00;;;;;;5072282;28;19924;-63
2023/12/12 04:33:11;;;;;;;;;;;18.90;57.00;;;;;;5072826;28;19928;-62
2023/12/12 04:35:38;;;;;;;;;;;18.90;57.00;;;;;;5072888;28;19924;-63
2023/12/12 04:38:03;;;;;;;;;;;18.90;56.90;;;;;;5071775;28;21227;-63
2023/12/12 04:40:29;;;;;;;;;;;18.90;56.90;;;;;;5072547;28;19976;-62
2023/12/12 04:42:55;;;;;;;;;;;18.90;56.90;;;;;;5055638;28;20018;-62
2023/12/12 04:45:20;;;;;;;;;;;19.00;56.90;;;;;;5060868;28;20363;-62
2023/12/12 04:47:46;;;;;;;;;;;19.00;56.90;;;;;;5079432;28;20021;-62
2023/12/12 04:50:12;;;;;;;;;;;19.00;56.90;;;;;;5079128;28;19932;-62
2023/12/12 04:52:38;;;;;;;;;;;19.00;56.90;;;;;;5078884;28;19931;-62
2023/12/12 04:55:03;;;;;;;;;;;19.00;56.80;;;;;;5078653;28;19929;-63
2023/12/12 04:57:29;;;;;;;;;;;19.00;56.80;;;;;;5079316;28;20439;-62
2023/12/12 04:59:54;;;;;;;;;;;19.10;56.80;;;;;;5078120;28;19924;-62
2023/12/12 05:02:20;;;;;;;;;;;19.00;56.80;;;;;;5078016;28;19930;-62
2023/12/12 05:04:45;;;;;;;;;;;19.10;56.80;;;;;;5080357;28;19921;-62
2023/12/12 05:07:11;;;;;;;;;;;19.10;56.80;;;;;;5077515;28;20027;-62
2023/12/12 05:09:36;;;;;;;;;;;19.10;56.80;;;;;;5061231;28;19931;-62
2023/12/12 05:12:02;;;;;;;;;;;19.10;56.80;;;;;;5061098;28;19978;-62
2023/12/12 05:14:27;;;;;;;;;;;19.10;56.80;;;;;;5060727;28;19925;-62
2023/12/12 05:16:53;;;;;;;;;;;19.20;56.80;;;;;;5061264;28;19920;-62
2023/12/12 05:19:18;;;;;;;;;;;19.20;56.80;;;;;;5079214;28;20379;-62
2023/12/12 05:21:44;;;;;;;;;;;19.20;56.80;;;;;;5060752;28;19931;-62
2023/12/12 05:24:09;;;;;;;;;;;19.20;56.70;;;;;;5060602;28;20431;-62
2023/12/12 05:26:34;;;;;;;;;;;19.20;56.70;;;;;;5078962;28;20033;-62
2023/12/12 05:29:00;;;;;;;;;;;19.20;57.40;;;;;;5054189;28;20019;-62
2023/12/12 05:31:25;;;;;;;;;;;19.20;56.70;;;;;;5052784;28;19925;-63
2023/12/12 05:33:53;;;;;;;;;;;19.30;56.70;;;;;;5045954;28;20414;-62
2023/12/12 05:36:18;;;;;;;;;;;19.30;56.70;;;;;;5066058;28;19979;-62
2023/12/12 05:38:43;;;;;;;;;;;19.30;57.40;;;;;;5078908;28;20426;-63
2023/12/12 05:41:09;;;;;;;;;;;19.30;56.70;;;;;;5059940;28;19928;-62
2023/12/12 05:43:34;;;;;;;;;;;19.30;56.70;;;;;;5078990;28;20027;-62
2023/12/12 05:46:00;;;;;;;;;;;19.30;56.60;;;;;;5078710;28;19928;-63
2023/12/12 05:48:25;;;;;;;;;;;19.30;56.60;;;;;;5078652;28;19989;-62
2023/12/12 05:50:51;;;;;;;;;;;19.40;56.70;;;;;;5060868;28;19928;-62
2023/12/12 05:53:16;;;;;;;;;;;19.40;56.70;;;;;;5079168;28;19924;-63
2023/12/12 05:55:42;;;;;;;;;;;19.40;56.60;;;;;;5074555;28;20399;-63
2023/12/12 05:58:07;;;;;;;;;;;19.40;56.60;;;;;;5057390;28;19928;-62
2023/12/12 06:00:33;;;;;;;;;;;19.40;56.60;;;;;;5075683;28;19931;-63
2023/12/12 06:02:58;;;;;;;;;;;19.40;56.60;;;;;;5074406;28;19925;-62
2023/12/12 06:05:24;;;;;;;;;;;19.50;56.60;;;;;;5074708;28;19960;-62
2023/12/12 06:07:49;;;;;;;;;;;19.40;56.60;;;;;;5075466;28;19931;-62
2023/12/12 06:10:15;;;;;;;;;;;19.50;56.60;;;;;;5051423;28;19970;-62
2023/12/12 06:12:40;;;;;;;;;;;19.50;56.60;;;;;;5055709;28;19925;-62
2023/12/12 06:15:07;;;;;;;;;;;19.50;56.50;;;;;;5049458;28;19938;-61
2023/12/12 06:17:36;;;;;;;;;;;19.50;56.60;;;;;;5055992;28;20391;-61
2023/12/12 06:20:02;;;;;;;;;;;19.50;56.40;;;;;;5075128;28;19990;-61
2023/12/12 06:22:28;;;;;;;;;;;19.50;56.50;;;;;;5057612;28;19920;-61
2023/12/12 06:24:54;;;;;;;;;;;19.50;56.50;;;;;;5061665;28;20368;-61
2023/12/12 06:27:19;;;;;;;;;;;19.50;56.50;;;;;;5054848;28;19978;-61
2023/12/12 06:29:46;;;;;;;;;;;19.50;56.50;;;;;;5037366;28;19932;-61
2023/12/12 06:32:12;;;;;;;;;;;19.50;56.60;;;;;;5054220;28;19933;-63
2023/12/12 06:34:37;;;;;;;;;;;19.60;56.90;;;;;;5055195;28;19932;-61
2023/12/12 06:37:03;;;;;;;;;;;19.60;57.00;;;;;;5054855;28;19925;-62
2023/12/12 06:39:28;;;;;;;;;;;19.60;57.10;;;;;;5054670;28;19929;-62
2023/12/12 06:41:54;;;;;;;;;;;19.60;57.20;;;;;;5056732;28;20382;-62
2023/12/12 06:44:19;;;;;;;;;;;19.60;57.20;;;;;;5036255;28;19929;-63
2023/12/12 06:46:45;;;;;;;;;;;19.60;57.20;;;;;;5037273;28;20016;-63
2023/12/12 06:49:10;;;;;;;;;;;19.70;57.40;;;;;;5054417;28;20292;-63
2023/12/12 06:51:36;;;;;;;;;;;19.70;57.30;;;;;;5054083;28;19925;-63
2023/12/12 06:54:03;;;;;;;;;;;19.60;57.40;;;;;;5054023;28;20395;-65
2023/12/12 06:56:28;;;;;;;;;;;19.60;57.40;;;;;;5044091;28;19928;-63
2023/12/12 06:58:54;;;;;;;;;;;19.60;57.40;;;;;;5035672;28;19925;-65
2023/12/12 07:01:20;;;;;;;;;;;19.70;57.50;;;;;;5054717;28;19925;-63
2023/12/12 07:03:45;;;;;;;;;;;19.70;57.50;;;;;;5054805;28;19925;-63
2023/12/12 07:06:10;;;;;;;;;;;19.70;57.60;;;;;;5053094;28;20019;-61
2023/12/12 07:08:36;;;;;;;;;;;19.70;57.70;;;;;;5054380;28;19983;-62
2023/12/12 07:11:02;;;;;;;;;;;19.70;57.70;;;;;;5053906;28;19936;-62
2023/12/12 07:13:28;;;;;;;;;;;19.70;57.70;;;;;;5052850;28;19921;-62
2023/12/12 07:15:53;;;;;;;;;;;19.70;57.70;;;;;;5037654;28;19932;-62
2023/12/12 07:18:18;;;;;;;;;;;19.70;57.70;;;;;;5067812;28;19929;-62
2023/12/12 07:20:44;;;;;;;;;;;19.70;57.70;;;;;;5072688;28;19924;-62
2023/12/12 07:23:10;;;;;;;;;;;19.70;57.70;;;;;;5074993;28;19931;-63
2023/12/12 07:25:35;;;;;;;;;;;19.70;57.70;;;;;;5073059;28;20015;-62
2023/12/12 07:28:00;;;;;;;;;;;19.70;57.80;;;;;;5054468;28;20021;-62
2023/12/12 07:30:29;;;;;;;;;;;19.80;57.90;;;;;;5057717;28;20390;-62
2023/12/12 07:32:54;;;;;;;;;;;19.80;57.90;;;;;;5058333;28;19921;-64
2023/12/12 07:35:20;;;;;;;;;;;19.80;58.10;;;;;;5048555;28;20307;-62
2023/12/12 07:37:46;;;;;;;;;;;19.80;57.70;;;;;;5055571;28;19931;-63
2023/12/12 07:40:11;;;;;;;;;;;19.80;57.70;;;;;;5040896;28;19929;-63
2023/12/12 07:42:36;;;;;;;;;;;19.80;57.70;;;;;;5052673;28;19968;-63
2023/12/12 07:45:03;;;;;;;;;;;19.80;57.70;;;;;;5034725;28;19931;-63
2023/12/12 07:47:29;;;;;;;;;;;19.80;57.70;;;;;;5053261;28;19931;-63
2023/12/12 07:49:55;;;;;;;;;;;19.80;57.70;;;;;;5053078;28;19925;-64
2023/12/12 07:52:20;;;;;;;;;;;19.80;57.70;;;;;;5037719;28;20015;-63
2023/12/12 07:54:46;;;;;;;;;;;19.80;57.70;;;;;;5036743;28;19932;-65
2023/12/12 07:57:11;;;;;;;;;;;19.80;57.70;;;;;;5046383;28;20281;-66
2023/12/12 07:59:37;;;;;;;;;;;19.80;57.70;;;;;;5038056;28;19925;-63
2023/12/12 08:02:02;;;;;;;;;;;19.80;57.60;;;;;;5043502;28;20429;-62
2023/12/12 08:04:28;;;;;;;;;;;19.80;57.60;;;;;;5046159;28;20441;-62
2023/12/12 08:06:53;;;;;;;;;;;19.80;57.50;;;;;;5061682;28;19925;-63
2023/12/12 08:09:19;;;;;;;;;;;19.90;57.60;;;;;;5044755;28;19967;-63
2023/12/12 08:11:44;;;;;;;;;;;19.90;57.60;;;;;;5062537;28;20369;-64
2023/12/12 08:14:10;;;;;;;;;;;19.90;57.70;;;;;;5033100;28;20295;-63
2023/12/12 08:16:35;;;;;;;;;;;19.90;58.00;;;;;;5035711;28;20249;-64
2023/12/12 08:19:01;;;;;;;;;;;19.90;58.00;;;;;;5037259;28;20015;-64
2023/12/12 08:21:26;;;;;;;;;;;19.90;58.00;;;;;;5057530;28;20403;-64
2023/12/12 08:23:52;;;;;;;;;;;19.90;58.00;;;;;;5052655;28;20027;-63
2023/12/12 08:26:17;;;;;;;;;;;19.90;58.10;;;;;;5053971;28;19929;-63
2023/12/12 08:28:43;;;;;;;;;;;19.90;58.10;;;;;;5051333;28;19931;-62
2023/12/12 08:31:09;;;;;;;;;;;19.90;58.00;;;;;;5037743;28;19925;-63
2023/12/12 08:33:34;;;;;;;;;;;19.90;57.80;;;;;;5060130;28;19972;-62
2023/12/12 08:36:00;;;;;;;;;;;19.90;57.90;;;;;;5056351;28;20272;-62
2023/12/12 08:38:25;;;;;;;;;;;19.90;58.00;;;;;;5052238;28;19924;-63
2023/12/12 08:40:51;;;;;;;;;;;20.00;58.00;;;;;;5066221;28;19930;-62
2023/12/12 08:43:16;;;;;;;;;;;20.00;58.00;;;;;;5073050;28;20330;-62
2023/12/12 08:45:44;;;;;;;;;;;20.00;58.00;;;;;;5072256;28;19929;-62
2023/12/12 08:48:10;;;;;;;;;;;20.00;57.90;;;;;;5051567;28;19924;-62
2023/12/12 08:50:35;;;;;;;;;;;20.00;57.80;;;;;;5050532;28;19925;-62
2023/12/12 08:53:02;;;;;;;;;;;20.00;57.80;;;;;;5051011;28;20007;-62
2023/12/12 08:55:27;;;;;;;;;;;20.00;57.80;;;;;;5034640;28;19924;-62
2023/12/12 08:57:53;;;;;;;;;;;20.00;57.80;;;;;;5056528;28;20016;-62
2023/12/12 09:00:18;;;;;;;;;;;20.00;57.80;;;;;;5072274;28;19931;-63
2023/12/12 09:02:44;;;;;;;;;;;20.00;57.80;;;;;;5071684;28;19999;-63
2023/12/12 09:05:10;;;;;;;;;;;20.00;57.70;;;;;;5071200;28;19925;-62
2023/12/12 09:07:35;;;;;;;;;;;20.00;57.70;;;;;;5054093;28;19975;-63
2023/12/12 09:10:04;;;;;;;;;;;20.00;57.70;;;;;;5033576;28;20038;-63
2023/12/12 09:12:30;;;;;;;;;;;20.00;57.70;;;;;;5051802;28;19932;-62
2023/12/12 09:14:55;;;;;;;;;;;20.00;57.70;;;;;;5052279;28;19921;-63
2023/12/12 09:17:21;;;;;;;;;;;20.00;57.70;;;;;;5052604;28;20391;-63
2023/12/12 09:19:46;;;;;;;;;;;20.00;57.70;;;;;;5033700;28;19963;-63
2023/12/12 09:22:12;;;;;;;;;;;20.00;57.70;;;;;;5052740;28;19933;-63
2023/12/12 09:24:37;;;;;;;;;;;20.00;57.60;;;;;;5051235;28;19929;-62
2023/12/12 09:27:03;;;;;;;;;;;20.00;57.60;;;;;;5050666;28;20017;-62
2023/12/12 09:29:28;;;;;;;;;;;20.00;57.60;;;;;;5067575;28;20364;-63
2023/12/12 09:31:54;;;;;;;;;;;20.00;57.60;;;;;;5076114;28;20045;-63
2023/12/12 09:34:19;;;;;;;;;;;20.00;57.50;;;;;;5075273;28;20398;-63
2023/12/12 09:36:45;;;;;;;;;;;20.00;57.60;;;;;;5076230;28;19978;-63
2023/12/12 09:39:10;;;;;;;;;;;20.00;57.60;;;;;;5057798;28;20756;-63
2023/12/12 09:41:36;;;;;;;;;;;20.00;57.50;;;;;;5075472;28;19925;-63
2023/12/12 09:44:02;;;;;;;;;;;20.00;57.50;;;;;;5058214;28;20315;-63
2023/12/12 09:46:27;;;;;;;;;;;20.00;57.50;;;;;;5059617;28;20392;-63
2023/12/12 09:48:53;;;;;;;;;;;19.90;57.40;;;;;;5037456;28;19928;-63
2023/12/12 09:51:18;;;;;;;;;;;20.00;57.40;;;;;;5037796;28;20395;-63
2023/12/12 09:53:47;;;;;;;;;;;19.90;57.40;;;;;;5021227;28;20372;-71
2023/12/12 09:56:13;;;;;;;;;;;19.90;57.40;;;;;;5064705;28;19928;-63
2023/12/12 09:58:38;;;;;;;;;;;19.90;57.30;;;;;;5074373;28;19943;-64
2023/12/12 10:01:05;;;;;;;;;;;19.90;57.00;;;;;;5075622;28;20352;-64
2023/12/12 10:03:32;;;;;;;;;;;19.90;57.10;;;;;;5040686;28;19924;-76
2023/12/12 10:05:57;;;;;;;;;;;19.90;57.10;;;;;;5057807;28;19924;-61
2023/12/12 10:08:23;;;;;;;;;;;19.90;58.20;;;;;;5056722;28;20015;-64
2023/12/12 10:10:52;;;;;;;;;;;19.90;57.70;;;;;;5075340;28;19924;-63
2023/12/12 10:13:18;;;;;;;;;;;19.90;57.80;;;;;;5075552;28;19975;-64
2023/12/12 10:15:44;;;;;;;;;;;19.90;57.90;;;;;;5057003;28;20025;-64
2023/12/12 10:18:10;;;;;;;;;;;19.90;58.00;;;;;;5075466;28;19997;-65
2023/12/12 10:20:35;;;;;;;;;;;19.90;58.00;;;;;;5071714;28;19925;-64
2023/12/12 10:23:01;;;;;;;;;;;20.00;58.10;;;;;;5055023;28;19935;-65
2023/12/12 10:25:27;;;;;;;;;;;19.90;58.00;;;;;;5038891;28;19932;-63
2023/12/12 10:27:53;;;;;;;;;;;20.00;58.10;;;;;;5055205;28;19929;-64
2023/12/12 10:30:21;;;;;;;;;;;20.00;58.80;;;;;;5036698;28;19943;-64
2023/12/12 10:32:53;;;;;;;;;;;20.00;58.20;;;;;;5055506;28;19924;-62
2023/12/12 10:35:22;;;;;;;;;;;20.00;58.10;;;;;;5054796;28;19929;-62
2023/12/12 10:37:48;;;;;;;;;;;20.00;58.00;;;;;;5064950;28;20268;-66
2023/12/12 10:40:17;;;;;;;;;;;20.00;58.00;;;;;;5074638;28;20285;-66
2023/12/12 10:42:43;;;;;;;;;;;20.00;58.00;;;;;;5073900;28;19931;-61
2023/12/12 10:45:13;;;;;;;;;;;20.00;58.10;;;;;;5073919;28;19924;-65
2023/12/12 10:47:43;;;;;;;;;;;20.00;58.00;;;;;;5074704;28;19978;-65
2023/12/12 10:50:09;;;;;;;;;;;20.00;58.00;;;;;;5051284;28;19983;-66
2023/12/12 10:52:35;;;;;;;;;;;20.00;58.00;;;;;;5054395;28;19925;-64
2023/12/12 10:55:00;;;;;;;;;;;20.00;58.00;;;;;;5040221;28;19927;-65
2023/12/12 10:57:26;;;;;;;;;;;20.00;58.00;;;;;;5046481;28;20382;-64
2023/12/12 10:59:52;;;;;;;;;;;20.10;58.80;;;;;;5049614;28;19928;-64
2023/12/12 11:02:18;;;;;;;;;;;20.00;58.10;;;;;;5026061;28;19928;-64
2023/12/12 11:04:44;;;;;;;;;;;20.00;58.00;;;;;;5032289;28;20040;-62
2023/12/12 11:07:09;;;;;;;;;;;20.00;58.00;;;;;;5030288;28;19925;-65
2023/12/12 11:09:35;;;;;;;;;;;20.00;58.00;;;;;;5041801;28;19931;-63
2023/12/12 11:12:00;;;;;;;;;;;20.10;58.10;;;;;;5063345;28;19928;-65
2023/12/12 11:14:26;;;;;;;;;;;20.10;58.10;;;;;;5030289;28;19931;-65
2023/12/12 11:16:51;;;;;;;;;;;20.10;58.10;;;;;;5045922;28;19924;-64
2023/12/12 11:19:17;;;;;;;;;;;20.10;58.10;;;;;;5037807;28;19932;-64
2023/12/12 11:21:46;;;;;;;;;;;20.00;58.00;;;;;;5035593;28;19937;-64
2023/12/12 11:24:12;;;;;;;;;;;20.00;57.90;;;;;;5053450;28;19929;-64
2023/12/12 11:26:38;;;;;;;;;;;20.10;58.00;;;;;;5052541;28;19925;-64
2023/12/12 11:29:07;;;;;;;;;;;20.00;57.90;;;;;;5056311;28;20399;-64
2023/12/12 11:31:36;;;;;;;;;;;20.00;58.00;;;;;;5073987;28;19921;-64
2023/12/12 11:34:04;;;;;;;;;;;20.00;58.00;;;;;;5055433;28;19932;-64
2023/12/12 11:36:59;;;;;;;;;;;20.00;58.00;;;;;;5056211;28;19925;-64
2023/12/12 11:39:37;;;;;;;;;;;20.00;58.00;;;;;;5025143;28;19925;-63
2023/12/12 11:42:03;;;;;;;;;;;20.00;58.00;;;;;;5062557;28;19978;-61
2023/12/12 11:44:38;;;;;;;;;;;20.00;58.10;;;;;;5064641;28;19924;-61
2023/12/12 11:47:04;;;;;;;;;;;19.90;58.20;;;;;;5042080;28;19925;-61
2023/12/12 11:49:30;;;;;;;;;;;20.00;58.40;;;;;;5047741;28;19924;-62
2023/12/12 11:51:55;;;;;;;;;;;20.00;58.40;;;;;;5045891;28;19925;-62
2023/12/12 11:54:21;;;;;;;;;;;19.90;58.50;;;;;;5042676;28;19925;-62
2023/12/12 11:56:48;;;;;;;;;;;19.90;58.50;;;;;;5063355;28;19971;-64
2023/12/12 11:59:20;;;;;;;;;;;19.90;58.50;;;;;;5045185;28;19955;-63
2023/12/12 12:01:45;;;;;;;;;;;19.90;58.50;;;;;;5039951;28;19930;-64
2023/12/12 12:04:11;;;;;;;;;;;19.90;58.50;;;;;;5061299;28;20313;-64
2023/12/12 12:06:37;;;;;;;;;;;19.90;58.60;;;;;;5054990;28;19951;-64
2023/12/12 12:09:03;;;;;;;;;;;19.90;58.50;;;;;;5054125;28;19928;-64
2023/12/12 12:11:47;;;;;;;;;;;19.90;58.60;;;;;;5055074;28;19921;-64
2023/12/12 12:14:20;;;;;;;;;;;19.90;58.60;;;;;;5073064;28;19935;-64
2023/12/12 12:16:46;;;;;;;;;;;19.90;58.50;;;;;;5054401;28;19928;-65
2023/12/12 12:19:25;;;;;;;;;;;19.90;58.60;;;;;;5055167;28;19997;-65
2023/12/12 12:21:51;;;;;;;;;;;19.90;58.60;;;;;;5054187;28;19950;-65
2023/12/12 12:24:16;;;;;;;;;;;19.90;58.50;;;;;;5073021;28;19928;-64
2023/12/12 12:26:42;;;;;;;;;;;19.90;58.50;;;;;;5055158;28;19924;-64
2023/12/12 12:29:10;;;;;;;;;;;19.90;58.60;;;;;;5054213;28;20692;-66
2023/12/12 12:31:38;;;;;;;;;;;19.90;58.50;;;;;;5072996;28;19924;-63
2023/12/12 12:34:19;;;;;;;;;;;19.90;58.60;;;;;;5054979;28;19924;-65
2023/12/12 12:36:48;;;;;;;;;;;19.90;58.70;;;;;;5054460;28;19957;-62
2023/12/12 12:39:14;;;;;;;;;;;19.90;58.60;;;;;;5054564;28;20287;-64
2023/12/12 12:41:40;;;;;;;;;;;19.90;58.50;;;;;;5072473;28;20372;-64
2023/12/12 12:44:06;;;;;;;;;;;19.90;58.60;;;;;;5054061;28;20008;-64
2023/12/12 12:46:31;;;;;;;;;;;19.90;58.60;;;;;;5072849;28;19924;-65
2023/12/12 12:48:56;;;;;;;;;;;19.90;58.60;;;;;;5054893;28;19925;-64
2023/12/12 12:51:22;;;;;;;;;;;19.90;58.70;;;;;;5054194;28;19924;-63
2023/12/12 12:53:47;;;;;;;;;;;19.90;58.70;;;;;;5054596;28;19924;-64
2023/12/12 12:56:13;;;;;;;;;;;19.90;58.70;;;;;;5036626;28;19976;-64
2023/12/12 12:58:39;;;;;;;;;;;20.00;58.80;;;;;;5033114;28;19924;-64
2023/12/12 13:01:04;;;;;;;;;;;20.00;58.90;;;;;;5052596;28;20089;-63
2023/12/12 13:03:31;;;;;;;;;;;20.00;58.90;;;;;;5051477;28;19921;-65
2023/12/12 13:05:57;;;;;;;;;;;20.00;58.90;;;;;;5036827;28;20454;-64
2023/12/12 13:08:23;;;;;;;;;;;20.00;58.90;;;;;;5038560;28;19966;-64
2023/12/12 13:10:48;;;;;;;;;;;20.00;58.80;;;;;;5075096;28;19925;-64
2023/12/12 13:13:14;;;;;;;;;;;20.00;58.80;;;;;;5058102;28;19924;-63
2023/12/12 13:15:39;;;;;;;;;;;20.00;58.90;;;;;;5058168;28;20646;-63
2023/12/12 13:18:05;;;;;;;;;;;20.00;58.90;;;;;;5075284;28;20410;-64
2023/12/12 13:20:30;;;;;;;;;;;20.00;58.90;;;;;;5041919;28;19928;-63
2023/12/12 13:22:56;;;;;;;;;;;20.10;58.90;;;;;;5076269;28;19963;-63
2023/12/12 13:25:21;;;;;;;;;;;20.10;59.00;;;;;;5057132;28;19924;-62
2023/12/12 13:27:47;;;;;;;;;;;20.10;59.00;;;;;;5058348;28;19925;-63
2023/12/12 13:30:12;;;;;;;;;;;20.10;59.00;;;;;;5043072;28;19937;-71
2023/12/12 13:32:38;;;;;;;;;;;20.10;58.90;;;;;;5055556;28;19931;-62
2023/12/12 13:35:07;;;;;;;;;;;20.10;58.90;;;;;;5054630;28;20422;-62
2023/12/12 13:37:33;;;;;;;;;;;20.10;58.80;;;;;;5037625;28;19929;-62
2023/12/12 13:39:59;;;;;;;;;;;20.10;58.70;;;;;;5053882;28;19932;-61
2023/12/12 13:42:24;;;;;;;;;;;20.10;58.70;;;;;;5056170;28;20443;-62
2023/12/12 13:44:50;;;;;;;;;;;20.10;58.70;;;;;;5037907;28;19925;-62
2023/12/12 13:47:15;;;;;;;;;;;20.10;58.60;;;;;;5037181;28;20008;-62
2023/12/12 13:49:41;;;;;;;;;;;20.10;58.60;;;;;;5056324;28;19932;-62
2023/12/12 13:52:07;;;;;;;;;;;20.10;58.60;;;;;;5055646;28;19925;-62
2023/12/12 13:54:33;;;;;;;;;;;20.10;58.60;;;;;;5037571;28;20023;-62
2023/12/12 13:56:58;;;;;;;;;;;20.10;58.50;;;;;;5037646;28;20043;-62
2023/12/12 13:59:23;;;;;;;;;;;20.10;59.20;;;;;;5060007;28;20389;-62
2023/12/12 14:01:49;;;;;;;;;;;20.10;58.40;;;;;;5036348;28;19925;-63
2023/12/12 14:04:14;;;;;;;;;;;20.10;58.40;;;;;;5036871;28;20019;-63
2023/12/12 14:06:40;;;;;;;;;;;20.10;58.30;;;;;;5037458;28;19925;-60
2023/12/12 14:09:06;;;;;;;;;;;20.10;58.30;;;;;;5054559;28;19925;-61